Aviation Digital Data Service (ADDS)

Output produced by METARs form (0400 UTC 24 January 2019)
found at http://www.aviationweather.gov/metar/data/
 
METAR text: DRRM 231800Z 36006KT CAVOK 30/M01 Q1011
Conditions at: DRRM (MARADI , NE) observed 1800 UTC 23 January 2019
Temperature: 30.0°C (86°F)
Dewpoint: -1.0°C (30°F) [RH = 13%]
Pressure (altimeter): 29.85 inches Hg (1011.0 mb)
Winds: from the N (360 degrees) at 7 MPH (6 knots; 3.1 m/s)
Visibility: 6 or more miles (10+ km)
Ceiling: ceiling and visibility are OK
Clouds: unknown
Weather: no significant weather observed at this time

METAR text: DRRM 231700Z 36006KT CAVOK 32/M00 Q1011
Conditions at: DRRM (MARADI , NE) observed 1700 UTC 23 January 2019
Temperature: 32.0°C (90°F)
Dewpoint: 0.0°C (32°F) [RH = 13%]
Pressure (altimeter): 29.85 inches Hg (1011.0 mb)
Winds: from the N (360 degrees) at 7 MPH (6 knots; 3.1 m/s)
Visibility: 6 or more miles (10+ km)
Ceiling: ceiling and visibility are OK
Clouds: unknown
Weather: no significant weather observed at this time

METAR text: DRRM 231600Z 36004KT CAVOK 34/M03 Q1011
Conditions at: DRRM (MARADI , NE) observed 1600 UTC 23 January 2019
Temperature: 34.0°C (93°F)
Dewpoint: -3.0°C (27°F) [RH =  9%]
Pressure (altimeter): 29.85 inches Hg (1011.0 mb)
Winds: from the N (360 degrees) at 5 MPH (4 knots; 2.1 m/s)
Visibility: 6 or more miles (10+ km)
Ceiling: ceiling and visibility are OK
Clouds: unknown
Weather: no significant weather observed at this time

METAR text: DRRM 231500Z 36002KT CAVOK 34/00 Q1011
Conditions at: DRRM (MARADI , NE) observed 1500 UTC 23 January 2019
Temperature: 34.0°C (93°F)
Dewpoint: 0.0°C (32°F) [RH = 11%]
Pressure (altimeter): 29.85 inches Hg (1011.0 mb)
Winds: from the N (360 degrees) at 2 MPH (2 knots; 1.0 m/s)
Visibility: 6 or more miles (10+ km)
Ceiling: ceiling and visibility are OK
Clouds: unknown
Weather: no significant weather observed at this time

METAR text: DRRM 231400Z 04006KT CAVOK 34/01 Q1011
Conditions at: DRRM (MARADI , NE) observed 1400 UTC 23 January 2019
Temperature: 34.0°C (93°F)
Dewpoint: 1.0°C (34°F) [RH = 12%]
Pressure (altimeter): 29.85 inches Hg (1011.0 mb)
Winds: from the NE (40 degrees) at 7 MPH (6 knots; 3.1 m/s)
Visibility: 6 or more miles (10+ km)
Ceiling: ceiling and visibility are OK
Clouds: unknown
Weather: no significant weather observed at this time

METAR text: DRRM 231300Z 08006KT CAVOK 33/M05 Q1012
Conditions at: DRRM (MARADI , NE) observed 1300 UTC 23 January 2019
Temperature: 33.0°C (91°F)
Dewpoint: -5.0°C (23°F) [RH =  8%]
Pressure (altimeter): 29.88 inches Hg (1012.0 mb)
Winds: from the E (80 degrees) at 7 MPH (6 knots; 3.1 m/s)
Visibility: 6 or more miles (10+ km)
Ceiling: ceiling and visibility are OK
Clouds: unknown
Weather: no significant weather observed at this time

METAR text: DRRM 231200Z 06006KT CAVOK 32/M04 Q1013
Conditions at: DRRM (MARADI , NE) observed 1200 UTC 23 January 2019
Temperature: 32.0°C (90°F)
Dewpoint: -4.0°C (25°F) [RH = 10%]
Pressure (altimeter): 29.91 inches Hg (1013.0 mb)
Winds: from the ENE (60 degrees) at 7 MPH (6 knots; 3.1 m/s)
Visibility: 6 or more miles (10+ km)
Ceiling: ceiling and visibility are OK
Clouds: unknown
Weather: no significant weather observed at this time

METAR text: DRRM 231100Z 06008KT CAVOK 30/M04 Q1014
Conditions at: DRRM (MARADI , NE) observed 1100 UTC 23 January 2019
Temperature: 30.0°C (86°F)
Dewpoint: -4.0°C (25°F) [RH = 11%]
Pressure (altimeter): 29.94 inches Hg (1014.0 mb)
Winds: from the ENE (60 degrees) at 9 MPH (8 knots; 4.1 m/s)
Visibility: 6 or more miles (10+ km)
Ceiling: ceiling and visibility are OK
Clouds: unknown
Weather: no significant weather observed at this time

METAR text: DRRM 231000Z 02008KT CAVOK 29/M07 Q1014
Conditions at: DRRM (MARADI , NE) observed 1000 UTC 23 January 2019
Temperature: 29.0°C (84°F)
Dewpoint: -7.0°C (19°F) [RH =  9%]
Pressure (altimeter): 29.94 inches Hg (1014.0 mb)
Winds: from the NNE (20 degrees) at 9 MPH (8 knots; 4.1 m/s)
Visibility: 6 or more miles (10+ km)
Ceiling: ceiling and visibility are OK
Clouds: unknown
Weather: no significant weather observed at this time

METAR text: DRRM 230900Z 02012KT CAVOK 26/M10 Q1014
Conditions at: DRRM (MARADI , NE) observed 0900 UTC 23 January 2019
Temperature: 26.0°C (79°F)
Dewpoint: -10.0°C (14°F) [RH =  9%]
Pressure (altimeter): 29.94 inches Hg (1014.0 mb)
Winds: from the NNE (20 degrees) at 14 MPH (12 knots; 6.2 m/s)
Visibility: 6 or more miles (10+ km)
Ceiling: ceiling and visibility are OK
Clouds: unknown
Weather: no significant weather observed at this time

METAR text: DRRM 230800Z 02006KT 8000 NSC 22/M04 Q1014
Conditions at: DRRM (MARADI , NE) observed 0800 UTC 23 January 2019
Temperature: 22.0°C (72°F)
Dewpoint: -4.0°C (25°F) [RH = 17%]
Pressure (altimeter): 29.94 inches Hg (1014.0 mb)
Winds: from the NNE (20 degrees) at 7 MPH (6 knots; 3.1 m/s)
Visibility: 5 miles ( 8 km)
Ceiling: at least 12,000 feet AGL
Clouds: sky clear below 12,000 feet AGL
Weather: no significant weather observed at this time

METAR text: DRRM 230700Z 02006KT 8000 NSC 20/01 Q1014
Conditions at: DRRM (MARADI , NE) observed 0700 UTC 23 January 2019
Temperature: 20.0°C (68°F)
Dewpoint: 1.0°C (34°F) [RH = 28%]
Pressure (altimeter): 29.94 inches Hg (1014.0 mb)
Winds: from the NNE (20 degrees) at 7 MPH (6 knots; 3.1 m/s)
Visibility: 5 miles ( 8 km)
Ceiling: at least 12,000 feet AGL
Clouds: sky clear below 12,000 feet AGL
Weather: no significant weather observed at this time

METAR text: DRRM 230600Z 02006KT CAVOK 19/01 Q1013
Conditions at: DRRM (MARADI , NE) observed 0600 UTC 23 January 2019
Temperature: 19.0°C (66°F)
Dewpoint: 1.0°C (34°F) [RH = 30%]
Pressure (altimeter): 29.91 inches Hg (1013.0 mb)
Winds: from the NNE (20 degrees) at 7 MPH (6 knots; 3.1 m/s)
Visibility: 6 or more miles (10+ km)
Ceiling: ceiling and visibility are OK
Clouds: unknown
Weather: no significant weather observed at this time

METAR text: DRRM 221800Z 02002KT CAVOK 30/10 Q1011
Conditions at: DRRM (MARADI , NE) observed 1800 UTC 22 January 2019
Temperature: 30.0°C (86°F)
Dewpoint: 10.0°C (50°F) [RH = 29%]
Pressure (altimeter): 29.85 inches Hg (1011.0 mb)
Winds: from the NNE (20 degrees) at 2 MPH (2 knots; 1.0 m/s)
Visibility: 6 or more miles (10+ km)
Ceiling: ceiling and visibility are OK
Clouds: unknown
Weather: no significant weather observed at this time

METAR text: DRRM 221700Z 36002KT CAVOK 33/08 Q1011
Conditions at: DRRM (MARADI , NE) observed 1700 UTC 22 January 2019
Temperature: 33.0°C (91°F)
Dewpoint: 8.0°C (46°F) [RH = 21%]
Pressure (altimeter): 29.85 inches Hg (1011.0 mb)
Winds: from the N (360 degrees) at 2 MPH (2 knots; 1.0 m/s)
Visibility: 6 or more miles (10+ km)
Ceiling: ceiling and visibility are OK
Clouds: unknown
Weather: no significant weather observed at this time